Time;durP1;ratioP1;P1;durP2;ratioP2;P2;SDS_P1;SDS_P2;PMS_P1;PMS_P2;Temp;Humidity;BMP_temperature;BMP_pressure;BME280_temperature;BME280_humidity;BME280_pressure;Samples;Min_cycle;Max_cycle;Signal;HPM_P1;HPM_P2
2023/01/16 00:46:56;;;;;;;3.35;1.00;;;;;;;4.76;79.62;99282.50;4980473;28;20078;-77
2023/01/16 05:49:28;;;;;;;6.65;1.48;;;;;;;3.84;85.69;99058.44;4994663;28;20109;-76
2023/01/16 06:10:06;;;;;;;6.72;1.48;;;;;;;3.86;85.87;99030.56;4987314;28;20151;-77
2023/01/16 06:38:28;;;;;;;5.13;1.92;;;;;;;3.74;85.60;99018.25;4985763;28;20049;-76
2023/01/16 06:50:11;;;;;;;4.07;1.50;;;;;;;3.71;85.81;99005.41;4985887;28;20045;-75
2023/01/16 06:52:59;;;;;;;7.95;1.40;;;;;;;3.70;85.66;99006.34;4935449;28;20050;-75
2023/01/16 06:55:26;;;;;;;6.60;1.33;;;;;;;3.69;85.37;99009.84;4910134;29;20064;-76
2023/01/16 06:57:54;;;;;;;12.68;1.95;;;;;;;3.68;85.93;99002.97;4953517;28;20047;-75
2023/01/16 07:00:22;;;;;;;6.55;1.83;;;;;;;3.67;85.41;99002.13;4962050;28;20050;-75
2023/01/16 07:07:07;;;;;;;7.25;1.40;;;;;;;3.64;86.06;98998.84;4946283;28;20058;-74
2023/01/16 07:09:37;;;;;;;7.72;1.52;;;;;;;3.62;85.63;98993.75;4964450;28;20142;-75
2023/01/16 07:12:05;;;;;;;5.95;1.40;;;;;;;3.64;85.39;98991.06;5008842;28;20042;-76
2023/01/16 07:22:55;;;;;;;6.68;1.58;;;;;;;3.58;85.66;98981.84;4972404;28;20058;-75
2023/01/16 07:25:31;;;;;;;4.90;1.52;;;;;;;3.58;85.99;98994.84;4985810;28;20062;-75
2023/01/16 07:27:58;;;;;;;5.85;1.92;;;;;;;3.60;85.72;98982.56;4986284;28;20052;-75
2023/01/16 07:30:26;;;;;;;4.70;2.30;;;;;;;3.62;85.20;98982.50;4988042;28;20058;-74
2023/01/16 07:32:54;;;;;;;4.93;1.77;;;;;;;3.64;85.53;98981.47;4974717;28;20042;-74
2023/01/16 07:35:22;;;;;;;7.07;2.55;;;;;;;3.63;85.71;98976.38;4974158;28;20174;-75
2023/01/16 07:37:51;;;;;;;8.00;2.17;;;;;;;3.62;85.36;98978.13;4997609;28;20053;-75
2023/01/16 07:40:19;;;;;;;7.07;2.10;;;;;;;3.60;85.67;98969.56;4999247;28;20042;-75
2023/01/16 07:42:48;;;;;;;6.85;1.65;;;;;;;3.61;85.21;98970.44;4969979;28;20399;-75
2023/01/16 07:45:17;;;;;;;10.38;1.60;;;;;;;3.61;85.71;98976.47;4950635;28;20586;-75
2023/01/16 07:47:44;;;;;;;5.57;1.60;;;;;;;3.62;85.09;98966.91;4980396;28;20054;-75
2023/01/16 07:50:13;;;;;;;7.30;2.13;;;;;;;3.64;85.29;98980.66;4990615;28;20056;-74
2023/01/16 07:52:43;;;;;;;4.78;1.90;;;;;;;3.57;85.82;98974.13;4989256;28;20089;-75
2023/01/16 07:55:11;;;;;;;8.63;2.30;;;;;;;3.57;86.28;98966.31;4995002;28;20066;-74
2023/01/16 07:57:39;;;;;;;6.32;2.13;;;;;;;3.61;85.82;98960.84;5001229;28;20054;-75
2023/01/16 08:03:59;;;;;;;5.63;1.92;;;;;;;3.61;85.44;98942.66;4976701;28;20061;-75
2023/01/16 08:06:27;;;;;;;4.38;1.50;;;;;;;3.61;84.58;98939.22;5000992;28;20128;-76
2023/01/16 08:08:55;;;;;;;4.38;1.67;;;;;;;3.65;85.66;98935.47;4999417;28;20415;-75
2023/01/16 08:11:35;;;;;;;5.72;1.55;;;;;;;3.64;85.06;98939.00;4990118;28;20053;-75
2023/01/16 08:16:56;;;;;;;3.53;1.50;;;;;;;3.66;84.29;98931.97;4977921;28;20042;-75
2023/01/16 08:19:24;;;;;;;6.05;1.80;;;;;;;3.67;84.57;98928.44;4986983;28;20046;-75
2023/01/16 08:21:52;;;;;;;5.03;1.75;;;;;;;3.65;84.79;98931.13;4981978;28;20117;-75
2023/01/16 08:24:20;;;;;;;6.15;2.15;;;;;;;3.68;84.04;98924.91;4992272;28;20117;-75
2023/01/16 08:26:48;;;;;;;5.82;1.80;;;;;;;3.75;84.59;98919.25;4988663;28;20616;-75
2023/01/16 08:29:15;;;;;;;5.80;1.73;;;;;;;3.78;84.02;98908.69;4968831;28;20051;-75
2023/01/16 08:31:43;;;;;;;6.72;1.83;;;;;;;3.86;84.10;98915.19;4988267;28;21013;-75
2023/01/16 08:34:11;;;;;;;4.97;1.63;;;;;;;3.87;84.28;98912.47;4992746;28;20666;-76
2023/01/16 08:36:38;;;;;;;4.55;1.77;;;;;;;3.91;84.22;98902.72;4985862;28;20051;-75
2023/01/16 08:39:08;;;;;;;5.38;2.00;;;;;;;3.90;83.72;98901.06;4992019;28;20053;-75
2023/01/16 08:52:51;;;;;;;5.50;2.40;;;;;;;4.02;83.11;98871.69;4990549;28;20051;-75
2023/01/16 08:55:19;;;;;;;4.95;2.13;;;;;;;4.01;82.75;98860.47;4970992;28;20411;-75
2023/01/16 08:57:46;;;;;;;7.30;1.98;;;;;;;3.99;83.28;98853.66;4988916;28;20118;-75
2023/01/16 09:00:14;;;;;;;4.43;1.70;;;;;;;3.99;82.78;98848.44;4990568;28;20065;-76
2023/01/16 09:02:42;;;;;;;7.60;2.30;;;;;;;3.99;83.15;98851.06;4995386;28;20042;-75
2023/01/16 09:05:10;;;;;;;8.52;2.42;;;;;;;4.02;83.20;98841.28;4978557;28;20077;-75
2023/01/16 09:07:38;;;;;;;6.00;1.85;;;;;;;4.00;83.12;98840.53;5006079;28;20081;-75
2023/01/16 09:10:06;;;;;;;7.82;2.40;;;;;;;4.05;82.15;98835.91;4988199;28;20129;-75
2023/01/16 09:15:19;;;;;;;8.38;2.67;;;;;;;4.06;82.52;98821.13;5000544;28;20053;-75
2023/01/16 09:17:47;;;;;;;5.50;2.22;;;;;;;4.07;83.02;98813.22;4982212;28;20061;-75
2023/01/16 09:20:15;;;;;;;8.90;3.10;;;;;;;4.12;82.02;98820.72;4997212;28;20054;-76
2023/01/16 09:22:43;;;;;;;6.20;2.03;;;;;;;4.15;81.42;98819.72;4992297;28;20133;-76
2023/01/16 09:25:11;;;;;;;4.28;1.88;;;;;;;4.14;81.86;98812.81;4975384;28;20057;-75
2023/01/16 09:27:39;;;;;;;6.15;1.52;;;;;;;4.18;81.18;98809.09;4998932;28;20073;-75
2023/01/16 09:30:07;;;;;;;7.38;1.67;;;;;;;4.20;80.29;98802.88;4980671;28;21069;-75
2023/01/16 09:32:35;;;;;;;7.07;1.80;;;;;;;4.21;81.04;98803.72;4956551;28;20047;-75
2023/01/16 09:35:04;;;;;;;9.43;1.70;;;;;;;4.22;81.43;98803.59;4990238;28;20414;-75
2023/01/16 09:37:32;;;;;;;4.70;1.30;;;;;;;4.23;80.28;98796.63;4969200;28;20137;-74
2023/01/16 09:40:00;;;;;;;5.95;1.38;;;;;;;4.25;80.14;98795.59;4981251;28;20077;-74
2023/01/16 09:45:21;;;;;;;11.25;1.90;;;;;;;4.32;80.16;98796.03;4989066;28;20069;-75
2023/01/16 09:48:04;;;;;;;4.20;1.33;;;;;;;4.37;79.69;98788.81;4994752;28;20467;-75
2023/01/16 09:50:36;;;;;;;5.20;1.45;;;;;;;4.42;79.30;98780.69;4978261;28;20703;-75
2023/01/16 09:59:23;;;;;;;5.68;1.80;;;;;;;4.71;79.57;98750.16;4995258;28;20121;-75
2023/01/16 10:02:07;;;;;;;5.63;1.83;;;;;;;4.82;79.29;98764.19;4991406;28;20078;-75
2023/01/16 10:04:36;;;;;;;6.85;1.80;;;;;;;4.85;78.52;98749.25;4997373;28;20137;-75
2023/01/16 10:07:25;;;;;;;5.03;1.80;;;;;;;4.90;78.37;98753.22;4991203;28;20350;-76
2023/01/16 10:10:10;;;;;;;4.85;1.50;;;;;;;4.99;77.16;98747.41;4992312;28;20180;-76
2023/01/16 10:12:41;;;;;;;8.75;1.70;;;;;;;5.03;77.16;98742.84;5001337;28;20077;-76
2023/01/16 10:15:45;;;;;;;4.95;1.92;;;;;;;5.10;76.44;98725.84;5008946;28;20054;-76
2023/01/16 10:18:20;;;;;;;11.77;2.10;;;;;;;5.18;75.37;98717.50;4982151;28;20245;-74
2023/01/16 10:21:05;;;;;;;4.68;1.52;;;;;;;5.12;75.28;98721.34;4989635;28;20152;-75
2023/01/16 10:23:44;;;;;;;3.95;1.80;;;;;;;5.19;75.80;98709.59;4972246;28;20090;-74
2023/01/16 10:26:35;;;;;;;5.47;1.38;;;;;;;5.29;75.99;98699.34;4950909;28;20101;-74
2023/01/16 10:29:30;;;;;;;5.53;1.77;;;;;;;5.36;74.63;98694.53;4968583;28;20143;-75
2023/01/16 10:32:24;;;;;;;4.32;1.67;;;;;;;5.40;74.58;98696.84;4973281;28;20080;-74
2023/01/16 10:35:00;;;;;;;3.55;1.27;;;;;;;5.47;74.05;98684.22;4992936;28;20070;-74
2023/01/16 10:37:28;;;;;;;;;;;;;;;5.57;74.29;98680.84;4994826;28;20157;-74
2023/01/16 10:39:59;;;;;;;5.28;1.23;;;;;;;5.64;73.91;98672.63;4989564;28;19921;-76
2023/01/16 10:51:00;;;;;;;3.00;1.10;;;;;;;5.93;71.55;98663.59;4972843;28;20078;-75
2023/01/16 10:53:29;;;;;;;3.58;1.20;;;;;;;5.98;71.01;98640.56;4968046;28;20133;-76
2023/01/16 10:55:57;;;;;;;5.28;1.42;;;;;;;6.03;69.21;98646.34;4971412;28;20529;-75
2023/01/16 10:58:25;;;;;;;7.10;1.70;;;;;;;6.09;69.95;98640.66;4979202;28;20081;-76
2023/01/16 11:00:59;;;;;;;6.03;1.50;;;;;;;6.11;69.16;98643.16;4996685;28;20738;-76
2023/01/16 11:03:42;;;;;;;6.53;1.90;;;;;;;6.21;70.13;98641.53;4987840;28;20153;-75
2023/01/16 11:06:19;;;;;;;5.85;1.45;;;;;;;6.27;68.49;98630.66;5005437;28;20136;-75
2023/01/16 11:08:59;;;;;;;4.78;1.10;;;;;;;6.29;68.46;98617.47;4977380;28;20237;-75
2023/01/16 11:20:04;;;;;;;5.03;1.42;;;;;;;6.83;66.50;98580.31;5001069;28;20116;-75
2023/01/16 11:22:38;;;;;;;3.70;1.02;;;;;;;7.02;66.36;98583.16;4977828;28;20138;-76
2023/01/16 11:25:09;;;;;;;3.13;1.20;;;;;;;7.26;65.40;98575.22;4973725;28;20074;-76
2023/01/16 11:27:37;;;;;;;7.35;1.42;;;;;;;7.48;65.62;98571.75;4997525;28;20107;-76
2023/01/16 11:30:16;;;;;;;6.18;1.13;;;;;;;7.67;65.28;98565.88;4969197;28;20142;-76
2023/01/16 11:32:48;;;;;;;2.45;1.20;;;;;;;7.72;62.40;98558.50;4987070;28;20046;-76
2023/01/16 11:35:17;;;;;;;3.00;1.10;;;;;;;7.88;63.63;98547.63;4968514;28;20057;-75
2023/01/16 11:37:49;;;;;;;6.85;1.38;;;;;;;8.13;61.77;98536.78;4982916;28;20116;-76
2023/01/16 11:40:27;;;;;;;4.88;1.15;;;;;;;8.28;60.69;98533.84;4999679;28;20042;-75
2023/01/16 11:46:03;;;;;;;2.42;0.90;;;;;;;8.54;60.12;98508.13;4975695;28;20249;-74
2023/01/16 11:48:41;;;;;;;4.30;1.30;;;;;;;8.75;60.13;98508.09;4992286;28;20070;-74
2023/01/16 11:51:18;;;;;;;4.35;1.20;;;;;;;8.93;59.10;98503.91;4996884;28;20069;-74
2023/01/16 11:53:47;;;;;;;3.85;1.10;;;;;;;9.13;58.72;98495.13;4979742;28;20061;-74
2023/01/16 11:56:26;;;;;;;3.03;1.00;;;;;;;9.13;57.85;98489.88;4990318;28;20077;-74
2023/01/16 11:59:16;;;;;;;5.88;1.30;;;;;;;9.25;57.54;98490.63;4987445;28;20060;-74
2023/01/16 12:02:21;;;;;;;3.95;1.00;;;;;;;9.34;55.94;98491.59;4970119;28;20046;-74
2023/01/16 12:08:11;;;;;;;3.85;1.55;;;;;;;9.57;57.25;98469.38;5005616;28;20282;-74
2023/01/16 12:10:46;;;;;;;2.63;1.15;;;;;;;9.72;56.20;98474.22;5016247;28;20117;-74
2023/01/16 12:16:29;;;;;;;3.25;1.15;;;;;;;10.41;53.57;98452.22;4973963;28;20161;-73
2023/01/16 12:19:42;;;;;;;2.70;1.08;;;;;;;10.79;51.78;98449.44;4984451;28;20403;-73
2023/01/16 12:22:25;;;;;;;3.45;0.90;;;;;;;11.13;51.92;98439.16;4969955;28;20061;-76
2023/01/16 12:25:24;;;;;;;3.17;1.23;;;;;;;11.00;51.00;98441.31;4990344;28;20050;-74
2023/01/16 12:28:01;;;;;;;3.95;1.55;;;;;;;10.63;53.77;98429.03;4988882;28;20053;-74
2023/01/16 12:30:49;;;;;;;2.13;0.98;;;;;;;10.55;53.06;98425.44;4996582;28;20441;-76
2023/01/16 12:33:28;;;;;;;1.98;1.13;;;;;;;10.67;53.56;98420.81;4988431;28;20038;-76
2023/01/16 12:36:11;;;;;;;2.03;1.13;;;;;;;10.68;52.42;98406.72;4975952;28;20130;-75
2023/01/16 12:39:18;;;;;;;3.13;1.10;;;;;;;10.54;51.97;98410.63;4981540;28;20054;-76
2023/01/16 12:44:54;;;;;;;3.53;1.10;;;;;;;10.58;53.93;98383.91;4988372;28;20574;-75
2023/01/16 12:47:43;;;;;;;3.78;1.70;;;;;;;10.59;54.66;98374.19;4995150;28;20046;-75
2023/01/16 12:50:42;;;;;;;2.30;0.88;;;;;;;10.54;53.06;98372.00;4984793;28;20054;-75
2023/01/16 12:53:22;;;;;;;3.30;1.02;;;;;;;10.78;53.04;98366.19;4992736;28;20050;-75
2023/01/16 12:56:05;;;;;;;4.50;1.00;;;;;;;11.23;52.00;98352.19;4994899;28;20073;-76
2023/01/16 12:58:38;;;;;;;4.43;0.80;;;;;;;11.59;51.51;98342.47;4993654;28;20050;-76
2023/01/16 13:01:25;;;;;;;3.33;1.27;;;;;;;11.72;49.60;98334.19;4971075;28;20054;-76
2023/01/16 13:04:13;;;;;;;2.28;1.00;;;;;;;11.77;51.03;98334.53;4989097;28;20132;-75
2023/01/16 13:06:56;;;;;;;5.53;1.30;;;;;;;11.76;50.49;98324.97;4987196;28;20054;-76
2023/01/16 13:09:36;;;;;;;5.28;1.45;;;;;;;11.60;50.88;98316.94;4999231;28;20050;-76
2023/01/16 13:15:11;;;;;;;4.25;1.17;;;;;;;11.15;51.20;98304.72;4975812;28;20138;-76
2023/01/16 13:17:46;;;;;;;4.38;1.77;;;;;;;10.97;53.28;98304.72;4962090;28;20054;-75
2023/01/16 13:20:16;;;;;;;4.07;1.20;;;;;;;10.94;51.53;98298.91;4979983;28;20057;-76
2023/01/16 13:23:05;;;;;;;4.30;1.30;;;;;;;10.65;50.92;98295.50;4980987;28;20138;-75
2023/01/16 13:25:37;;;;;;;5.00;1.40;;;;;;;10.34;52.10;98294.97;5001431;28;20048;-75
2023/01/16 13:28:10;;;;;;;2.15;1.20;;;;;;;10.10;52.28;98294.63;5001577;28;20073;-75
2023/01/16 13:30:38;;;;;;;3.85;1.67;;;;;;;10.02;53.42;98295.34;4995040;28;20787;-76
2023/01/16 13:33:15;;;;;;;5.28;1.50;;;;;;;9.87;52.99;98281.84;4982086;28;20047;-75
2023/01/16 13:35:49;;;;;;;5.22;1.55;;;;;;;9.83;52.51;98287.53;4989459;28;20053;-76
2023/01/16 13:38:48;;;;;;;5.75;1.48;;;;;;;9.69;52.03;98280.94;4999369;28;20056;-76
2023/01/16 13:41:26;;;;;;;2.78;1.60;;;;;;;9.57;54.49;98269.75;4973841;28;20064;-74
2023/01/16 13:46:47;;;;;;;2.40;1.20;;;;;;;9.33;54.68;98248.38;4979427;28;20602;-75
2023/01/16 13:49:20;;;;;;;3.83;1.10;;;;;;;9.25;54.65;98245.63;4989729;28;20047;-75
2023/01/16 13:51:49;;;;;;;3.20;1.67;;;;;;;9.23;53.54;98240.53;4987692;28;20056;-75
2023/01/16 13:54:27;;;;;;;4.40;1.20;;;;;;;9.15;54.30;98229.91;4959271;28;20653;-76
2023/01/16 13:57:19;;;;;;;7.35;1.45;;;;;;;9.10;53.35;98227.69;4985831;28;20050;-75
2023/01/16 13:59:56;;;;;;;3.15;1.55;;;;;;;8.98;55.62;98217.47;4976999;28;20417;-74
2023/01/16 14:02:27;;;;;;;6.03;1.60;;;;;;;8.91;55.19;98214.56;4987178;28;20134;-75
2023/01/16 14:05:07;;;;;;;6.93;1.50;;;;;;;8.85;55.48;98220.38;4990844;28;20122;-76
2023/01/16 14:10:45;;;;;;;4.45;1.60;;;;;;;8.69;55.91;98213.06;4986925;28;20801;-74
2023/01/16 14:13:23;;;;;;;2.92;1.80;;;;;;;8.55;56.63;98218.69;4967479;28;20051;-73
2023/01/16 14:16:37;;;;;;;7.05;1.73;;;;;;;8.49;57.32;98204.34;4980807;28;20046;-74
2023/01/16 14:19:15;;;;;;;2.75;1.38;;;;;;;8.45;56.95;98208.19;4986400;28;20130;-74
2023/01/16 14:24:47;;;;;;;2.65;1.02;;;;;;;8.17;57.27;98198.47;4964207;28;20142;-74
2023/01/16 14:27:22;;;;;;;4.70;1.65;;;;;;;8.11;58.64;98187.56;4954845;28;20122;-74
2023/01/16 14:29:54;;;;;;;4.33;1.57;;;;;;;8.08;58.90;98185.19;4969898;28;20379;-74
2023/01/16 14:32:28;;;;;;;3.47;1.13;;;;;;;8.03;59.09;98178.72;4984802;28;20043;-76
2023/01/16 14:35:19;;;;;;;4.25;1.33;;;;;;;7.94;58.88;98182.13;4974990;28;20046;-74
2023/01/16 14:38:02;;;;;;;2.47;1.10;;;;;;;7.86;58.36;98174.94;4952677;28;20093;-74
2023/01/16 15:49:15;;;;;;;3.67;1.63;;;;;;;6.25;66.15;98107.34;4966618;28;20534;-74
2023/01/16 15:57:21;;;;;;;3.80;1.70;;;;;;;6.24;66.59;98092.66;4984590;28;20130;-75
2023/01/16 16:04:22;;;;;;;8.57;2.00;;;;;;;6.18;66.42;98089.72;4995671;28;20058;-75
2023/01/16 18:00:00;;;;;;;5.35;2.20;;;;;;;5.12;70.17;97951.19;4987605;28;20110;-74
2023/01/16 18:23:50;;;;;;;;;;;;;;;5.14;70.36;97931.88;4991317;28;20389;-76
2023/01/16 20:51:09;;;;;;;4.78;2.03;;;;;;;4.97;71.08;97669.06;5002328;28;20052;-75
2023/01/16 20:58:27;;;;;;;4.57;2.22;;;;;;;5.06;70.55;97657.88;4993451;28;20581;-75
2023/01/16 21:52:49;;;;;;;3.63;1.60;;;;;;;4.89;71.23;97588.88;4997626;28;20144;-77
